Weather at John F Kennedy International Airport

Public forecast

Using degrees Fahrenheit for public forecast. Weather courtesy of forecast.io.

Current aviation weather report (METAR) for John F Kennedy International Airport

Retrieved 2020/10/27 09:39 UTC (0 seconds ago):

KJFK 270939Z 30006KT 10SM FEW007 OVC060 15/14 A3011 RMK AO2 T01500139

Aviation forecast (TAF) for John F Kennedy International Airport

Retrieved 2020/10/27 06:27 UTC (3 hours ago):

TAF KJFK 270524Z 2706/2812 VRB04KT 1/2SM FG OVC002 TEMPO 2706/2708 1/4SM FG FM271000 32006KT P6SM BKN012 BKN060 FM271200 36010KT P6SM SCT025 BKN060 FM271800 33006KT P6SM SCT030 BKN100 FM272100 VRB04KT P6SM SCT035 BKN100 FM280400 34004KT P6SM SCT035 BKN060